Stations météo

réclame
Mon MeteoGroup
Heino aws, Pays-Bas (6278): Température de l'air & dewpoint: 09.12.2017 18:00:00 - 15.12.2017 18:00:00 (CET)Heino aws, Pays-Bas (6278): Température de l'air 5cm: 09.12.2017 18:00:00 - 15.12.2017 18:00:00 (CET)Heino aws, Pays-Bas (6278): Vitesse du vent & gusts: 09.12.2017 18:00:00 - 15.12.2017 18:00:00 (CET)Heino aws, Pays-Bas (6278): Direction du vent: 09.12.2017 18:00:00 - 15.12.2017 18:00:00 (CET)Heino aws, Pays-Bas (6278): Quantités de précipitations: 09.12.2017 18:00:00 - 15.12.2017 18:00:00 (CET)
Date & Time tt [°C] td [°C] tt 5cm [°C] ff [km/h] ff [knt] fx [km/h] fx [knt] dd rr [mm]
15.12.2017 18:00:00 3,0 2,3 2,5 0 0 4 2 N 0,0
15.12.2017 17:00:00 3,2 2,2 2,2 4 2 4 2 NW 0,0
15.12.2017 16:00:00 3,9 2,6 3,7 0 0 11 6 N 0,0
15.12.2017 15:00:00 4,2 2,4 4,2 7 4 11 6 SSW 0,0
15.12.2017 14:00:00 4,2 2,6 4,2 7 4 18 10 SW 0,0
15.12.2017 13:00:00 4,0 1,7 4,0 11 6 22 12 SSW 0,0
15.12.2017 12:00:00 3,7 2,2 3,7 11 6 18 10 SSW 0,0
15.12.2017 11:00:00 3,4 2,3 3,4 7 4 14 8 S 0,0
15.12.2017 10:00:00 3,0 2,1 3,0 7 4 14 8 S 0,0
15.12.2017 09:00:00 2,8 1,6 2,6 7 4 18 10 S 0,0
15.12.2017 08:00:00 2,6 1,5 2,4 7 4 18 10 S 0,0
15.12.2017 07:00:00 2,5 1,3 2,3 7 4 22 12 S 0,0
15.12.2017 06:00:00 2,2 1,1 2,1 14 8 25 14 SSW 0,0
15.12.2017 05:00:00 2,3 1,2 2,1 14 8 22 12 SSW 0,0
15.12.2017 04:00:00 1,9 1,0 1,9 14 8 29 16 SSW 0,0
15.12.2017 03:00:00 2,0 0,9 1,8 11 6 22 12 SSW 0,0
15.12.2017 02:00:00 2,2 1,1 1,8 11 6 22 12 SSW 0,0
15.12.2017 01:00:00 2,3 1,2 1,5 11 6 25 14 SSW 0,0
15.12.2017 00:00:00 3,1 1,8 2,8 11 6 25 14 SSW 0,0
14.12.2017 23:00:00 3,2 1,7 2,5 11 6 25 14 SW 0,0
14.12.2017 22:00:00 2,7 1,5 1,7 7 4 22 12 SSW 0,0
14.12.2017 21:00:00 2,4 1,4 1,2 7 4 22 12 S 0,0
14.12.2017 20:00:00 3,2 1,6 2,4 11 6 25 14 SSW 0,0
14.12.2017 19:00:00 3,6 2,2 3,1 14 8 29 16 SSW 0,0
14.12.2017 18:00:00 4,0 2,5 3,3 14 8 25 14 SSW 0,0
14.12.2017 17:00:00 2,8 1,8 2,4 14 8 22 12 SSW 0,0
14.12.2017 16:00:00 3,3 2,1 3,1 11 6 25 14 SSW 0,1
14.12.2017 15:00:00 3,0 1,7 2,8 18 10 29 16 SSW 0,0
14.12.2017 14:00:00 3,5 2,1 3,4 18 10 32 18 SSW 0,1
14.12.2017 13:00:00 3,5 2,2 3,4 18 10 29 16 SSW 0,0
14.12.2017 12:00:00 3,2 2,1 3,1 14 8 29 16 SSW 0,2
14.12.2017 11:00:00 2,1 1,5 2,3 14 8 36 19 SSW 0,3
14.12.2017 10:00:00 2,3 1,2 2,1 22 12 43 23 SW 0,2
14.12.2017 09:00:00 2,0 1,0 1,4 14 8 25 14 SSW 0,0
14.12.2017 08:00:00 1,4 0,6 0,5 18 10 29 16 SW 0,3
14.12.2017 07:00:00 0,6 0,1 0,3 14 8 29 16 SW 1,1
14.12.2017 06:00:00 1,9 0,9 1,8 22 12 40 21 WSW 1,0
14.12.2017 05:00:00 3,6 1,9 3,3 22 12 36 19 SW 0,0
14.12.2017 04:00:00 3,5 1,9 2,9 14 8 25 14 SSW 0,0
14.12.2017 03:00:00 3,6 1,9 2,9 14 8 25 14 SW 0,0
14.12.2017 02:00:00 3,8 1,8 2,9 18 10 29 16 SW 0,0
14.12.2017 01:00:00 3,8 1,9 2,8 18 10 36 19 WSW 0,0
14.12.2017 00:00:00 4,5 2,9 3,7 22 12 29 16 WSW 0,0
13.12.2017 23:00:00 5,0 3,3 4,5 18 10 36 19 W 1,1
13.12.2017 22:00:00 5,3 4,3 4,7 22 12 43 23 SSW 1,0
13.12.2017 21:00:00 4,9 4,0 4,0 18 10 36 19 S 0,1
13.12.2017 20:00:00 4,5 3,7 3,6 18 10 32 18 S 0,5
13.12.2017 19:00:00 4,5 3,8 3,7 14 8 29 16 S 0,2
13.12.2017 18:00:00 4,7 3,6 3,6 18 10 32 18 S 0,0
13.12.2017 17:00:00 4,5 3,7 3,4 14 8 32 18 SSW 0,0
13.12.2017 16:00:00 4,1 3,6 3,1 18 10 36 19 SW 0,0
13.12.2017 15:00:00 3,8 3,2 2,8 14 8 25 14 SSW 0,4
13.12.2017 14:00:00 3,4 2,9 - 14 8 32 18 S 0,4
13.12.2017 13:00:00 3,2 2,6 - 14 8 32 18 S 0,6
13.12.2017 12:00:00 3,3 2,4 2,5 18 10 36 19 S 1,1
13.12.2017 11:00:00 2,7 1,8 1,9 18 10 36 19 S 1,0
13.12.2017 10:00:00 1,5 0,7 1,1 18 10 36 19 S 2,7
13.12.2017 09:00:00 2,5 1,2 1,9 22 12 36 19 S 0,3
13.12.2017 08:00:00 2,6 0,5 2,0 22 12 36 19 S 0,0
13.12.2017 07:00:00 2,5 0,3 1,8 18 10 36 19 S 0,0
13.12.2017 06:00:00 2,3 0,0 1,7 22 12 43 23 S 0,0
13.12.2017 05:00:00 1,9 -0,2 1,3 18 10 32 18 S 0,0
13.12.2017 04:00:00 1,2 -0,2 0,5 18 10 32 18 S 0,0
13.12.2017 03:00:00 1,0 -0,3 0,2 14 8 29 16 S 0,0
13.12.2017 02:00:00 0,8 -0,3 -0,1 11 6 25 14 S 0,0
13.12.2017 01:00:00 0,9 0,1 0,1 11 6 25 14 S 0,0
13.12.2017 00:00:00 1,5 0,6 0,9 11 6 25 14 S 0,0
12.12.2017 23:00:00 1,7 0,8 1,2 14 8 36 19 SSW 0,0
12.12.2017 22:00:00 1,5 0,4 1,0 18 10 32 18 SSW 0,0
12.12.2017 21:00:00 0,9 0,3 0,6 18 10 29 16 SSW 0,0
12.12.2017 20:00:00 0,4 -0,2 -0,4 11 6 18 10 S 0,0
12.12.2017 19:00:00 0,7 0,1 -0,1 11 6 18 10 SSW 0,0
12.12.2017 18:00:00 1,3 0,5 0,6 11 6 18 10 SSW 0,0
12.12.2017 17:00:00 1,3 0,6 0,9 11 6 29 16 SW 1,3
12.12.2017 16:00:00 1,5 0,5 1,2 18 10 29 16 W 0,4
12.12.2017 15:00:00 2,7 0,7 1,7 11 6 22 12 SW 0,0
12.12.2017 14:00:00 3,6 1,2 2,9 14 8 25 14 SW 0,0
12.12.2017 13:00:00 2,9 1,2 1,6 14 8 22 12 SW 0,0
12.12.2017 12:00:00 2,0 1,1 1,4 11 6 22 12 SW 0,0
12.12.2017 11:00:00 1,7 0,6 1,2 14 8 29 16 W 0,2
12.12.2017 10:00:00 0,9 0,3 0,5 22 12 36 19 W 1,1
12.12.2017 09:00:00 1,4 0,5 0,9 14 8 29 16 W 0,0
12.12.2017 08:00:00 1,1 0,3 0,7 18 10 32 18 WSW 0,0
12.12.2017 07:00:00 2,0 0,4 1,1 22 12 29 16 W 0,0
12.12.2017 06:00:00 1,6 -0,1 0,8 14 8 25 14 WSW 0,0
12.12.2017 05:00:00 1,5 -0,6 0,7 14 8 22 12 WSW 0,0
12.12.2017 04:00:00 1,9 -0,7 0,6 14 8 22 12 W 0,0
12.12.2017 03:00:00 1,3 0,3 0,5 11 6 29 16 WNW 0,0
12.12.2017 02:00:00 1,3 0,0 0,4 11 6 29 16 WNW 0,0
12.12.2017 01:00:00 1,3 -0,2 0,5 18 10 29 16 NNW 1,3
12.12.2017 00:00:00 0,9 -0,1 0,6 14 8 29 16 N 0,7
11.12.2017 23:00:00 0,6 -0,1 0,6 14 8 29 16 N 0,5
11.12.2017 22:00:00 0,4 -0,1 0,6 14 8 29 16 N 0,7
11.12.2017 21:00:00 0,4 -0,2 0,6 18 10 32 18 NNE 0,7
11.12.2017 20:00:00 0,0 -0,4 0,5 18 10 36 19 N 0,5
11.12.2017 19:00:00 0,0 -0,9 0,4 18 10 29 16 NNE 0,4
11.12.2017 18:00:00 -0,1 -0,9 0,4 18 10 29 16 NE 0,7
11.12.2017 17:00:00 -0,3 -0,8 0,2 18 10 29 16 NE 0,8
11.12.2017 16:00:00 -0,1 -1,2 0,2 18 10 32 18 NE 0,1
11.12.2017 15:00:00 -0,4 -1,3 0,3 18 10 40 21 NE 0,1
11.12.2017 14:00:00 -0,5 -1,1 -0,1 18 10 32 18 ENE 0,1
11.12.2017 13:00:00 0,0 -1,7 0,1 14 8 29 16 ENE 0,0
11.12.2017 12:00:00 0,4 -2,0 0,2 18 10 32 18 E 0,0
11.12.2017 11:00:00 0,2 -1,7 -0,1 18 10 25 14 E 0,0
11.12.2017 10:00:00 -0,4 -1,5 -0,6 11 6 14 8 E 0,0
11.12.2017 09:00:00 -0,5 -1,7 -1,0 11 6 18 10 E 0,0
11.12.2017 08:00:00 -1,3 -2,1 -2,3 11 6 14 8 E 0,0
11.12.2017 07:00:00 -3,2 -3,6 -4,1 7 4 11 6 E 0,0
11.12.2017 06:00:00 -2,2 -2,4 -3,6 4 2 7 4 SE 0,0
11.12.2017 05:00:00 -0,3 -1,4 -1,1 0 0 11 6 N 0,0
11.12.2017 04:00:00 -0,3 -1,3 -0,8 7 4 11 6 WSW 0,0
11.12.2017 03:00:00 -1,1 -2,3 -2,7 7 4 18 10 WSW 0,0
11.12.2017 02:00:00 -0,1 -1,4 -0,5 11 6 25 14 W 0,1
11.12.2017 01:00:00 0,5 -1,2 0,2 14 8 25 14 W 0,1
11.12.2017 00:00:00 0,2 -1,1 0,1 14 8 36 19 WNW 0,1
10.12.2017 23:00:00 0,0 -0,8 0,0 18 10 36 19 NW 0,3
10.12.2017 22:00:00 1,9 1,3 1,4 11 6 22 12 WNW 0,6
10.12.2017 21:00:00 2,7 1,9 1,6 14 8 25 14 SSW 2,1
10.12.2017 20:00:00 1,1 1,1 0,7 7 4 14 8 SSW 1,2
10.12.2017 19:00:00 0,0 0,0 0,5 11 6 29 16 E 0,9
10.12.2017 18:00:00 -0,1 -0,2 0,4 22 12 32 18 E 0,4
10.12.2017 17:00:00 0,0 -0,2 - 22 12 36 19 E 0,5
10.12.2017 16:00:00 0,0 -0,3 0,3 22 12 36 19 E 0,7
10.12.2017 15:00:00 0,1 0,0 0,3 22 12 32 18 E 0,5
10.12.2017 14:00:00 0,0 -0,1 0,1 22 12 32 18 E 0,4
10.12.2017 13:00:00 0,7 -0,5 0,6 14 8 32 18 ESE 0,0
10.12.2017 12:00:00 1,2 -0,5 1,0 18 10 29 16 ESE 0,0
10.12.2017 11:00:00 1,1 -0,2 1,0 14 8 22 12 ESE 0,0
10.12.2017 10:00:00 0,9 0,0 0,8 11 6 29 16 SSE 0,1
10.12.2017 09:00:00 1,1 0,0 0,8 14 8 25 14 S 0,0
10.12.2017 08:00:00 0,5 -0,4 0,0 11 6 22 12 SSE 0,0
10.12.2017 07:00:00 0,2 -0,9 -0,1 7 4 25 14 SSE 0,0
10.12.2017 06:00:00 0,8 -0,6 0,6 7 4 25 14 S 0,0
10.12.2017 05:00:00 0,9 -0,4 0,7 14 8 32 18 SSW 0,0
10.12.2017 04:00:00 0,9 -0,1 0,7 18 10 29 16 SSW 0,1
10.12.2017 03:00:00 0,6 -0,1 0,4 14 8 29 16 SSW 0,3
10.12.2017 02:00:00 0,6 -0,1 0,4 18 10 32 18 SSW 0,0
10.12.2017 01:00:00 0,7 -0,1 0,6 18 10 36 19 SSW 0,0
10.12.2017 00:00:00 1,1 0,0 0,8 18 10 32 18 SSW 0,0
09.12.2017 23:00:00 1,1 -0,1 0,8 18 10 32 18 SSW 0,0
09.12.2017 22:00:00 1,2 0,0 0,8 18 10 32 18 SSW 0,0
09.12.2017 21:00:00 1,3 0,0 0,7 18 10 29 16 SSW 0,0
09.12.2017 20:00:00 1,2 0,1 0,7 14 8 25 14 SSW 0,0
09.12.2017 19:00:00 1,1 0,3 0,7 14 8 43 23 SSW 0,2
09.12.2017 18:00:00 0,6 0,0 0,4 11 6 29 16 SSW 0,7

tt = Température de l'air
td = dewpoint
tt 5cm = Température de l'air 5cm
ff = Vitesse du vent
fx = gusts
dd = Direction du vent
rr = Quantités de précipitations

stations d'obs. à proximité